Date,TemperatureHighF,TemperatureAvgF,TemperatureLowF,DewpointHighF,DewpointAvgF,DewpointLowF,HumidityHigh,HumidityAvg,HumidityLow,PressureMaxIn,PressureMinIn,WindSpeedMaxMPH,WindSpeedAvgMPH,GustSpeedMaxMPH,PrecipitationSumIn
2013-9-1,99,83,71,71,60,-100,57,51,48,0.00,40.00,6,-74,11,0.00
2013-9-2,94,74,74,78,52,-100,89,53,49,0.00,40.00,5,-294,9,0.00
2013-9-3,98,79,73,80,59,-100,94,60,48,0.00,40.00,4,-51,11,0.04
2013-9-4,98,81,71,71,58,-100,54,50,48,0.00,40.00,4,-125,8,0.00
2013-9-5,98,68,68,71,35,-100,56,44,48,0.00,40.00,4,-169,6,0.00
2013-9-6,99,54,68,71,2,-100,56,31,48,0.00,40.00,5,-47,8,0.00
2013-9-7,98,81,71,71,60,-100,60,51,48,0.00,40.00,4,-325,8,0.00
2013-9-8,96,49,69,71,0,-100,59,34,49,0.00,40.00,5,-151,8,0.00
2013-9-9,97,76,68,71,51,-100,59,49,48,0.00,40.00,8,1,89,0.00
2013-9-10,97,67,69,71,35,-100,56,44,49,0.00,40.00,5,1,17,0.00
2013-9-11,96,83,73,70,62,55,57,52,49,0.00,40.00,5,1,9,0.00
2013-9-12,98,69,69,71,37,-100,59,44,48,0.00,40.00,4,-5,8,0.00
2013-9-13,94,78,73,68,56,-100,55,51,49,0.00,40.00,6,-344,9,0.00
2013-9-14,89,52,66,66,9,-100,55,37,50,0.00,40.00,4,-5,8,0.00
2013-9-15,73,1,72,55,-98,-100,54,1,54,0.00,40.00,4,1,9,0.00
2013-9-16,96,0,96,71,-99,-100,49,0,49,0.00,40.00,5,-142,20,0.00
2013-9-17,95,37,71,69,-30,-100,54,22,49,0.00,40.00,4,-10,6,0.00
2013-9-18,94,0,94,68,-99,-100,49,0,49,0.00,40.00,5,-155,9,0.00
2013-9-19,95,0,93,68,-99,-100,49,0,49,0.00,40.00,6,-124,12,0.00
2013-9-20,75,3,71,73,-94,-100,86,3,62,0.00,40.00,5,-21,9,0.00
2013-9-21,71,15,68,77,-63,-100,96,19,62,0.00,40.00,4,-15,11,0.00
2013-9-22,80,8,56,60,-81,-100,82,8,52,0.00,40.00,6,-36,8,0.00
2013-9-23,86,25,56,64,-44,-100,92,22,51,0.00,40.00,4,-10,8,0.00
2013-9-24,88,20,68,78,-58,-100,96,15,50,0.00,40.00,4,-72,6,0.00
2013-9-25,86,20,67,64,-61,-100,70,13,51,0.00,40.00,4,-118,6,0.00
2013-9-26,87,6,61,64,-88,-100,88,5,51,0.00,40.00,4,-328,7,0.00
2013-9-27,88,44,65,73,-8,-100,95,33,51,0.00,40.00,5,-119,8,0.00
2013-9-28,88,46,68,66,-7,-100,65,31,51,0.00,40.00,5,-388,9,0.00
2013-9-29,76,51,69,75,15,-100,92,48,54,0.00,40.00,5,-441,8,0.00
2013-9-30,84,52,70,64,8,-100,65,39,51,0.00,40.00,5,-151,10,0.00